Time;durP1;ratioP1;P1;durP2;ratioP2;P2;SDS_P1;SDS_P2;PMS_P1;PMS_P2;Temp;Humidity;BMP_temperature;BMP_pressure;BME280_temperature;BME280_humidity;BME280_pressure;Samples;Min_cycle;Max_cycle;Signal;HPM_P1;HPM_P2
2021/12/25 00:00:15;;;;;;;1.08;0.30;;;-1.30;99.90;;;;;;4981028;28;20421;-71
2021/12/25 00:02:41;;;;;;;0.65;0.25;;;-1.40;99.90;;;;;;4981033;28;20042;-71
2021/12/25 00:05:08;;;;;;;3.78;0.25;;;-1.40;99.90;;;;;;4981391;28;20027;-71
2021/12/25 00:07:34;;;;;;;0.35;0.10;;;-1.40;99.90;;;;;;4980854;28;20034;-71
2021/12/25 00:10:00;;;;;;;;;;;-1.50;99.90;;;;;;4981559;28;20195;-71
2021/12/25 00:12:26;;;;;;;4.93;0.82;;;-1.50;99.90;;;;;;5003599;28;19912;-71
2021/12/25 00:14:51;;;;;;;0.82;0.20;;;-1.60;99.90;;;;;;4981131;28;20030;-71
2021/12/25 00:17:17;;;;;;;;;;;-1.60;99.50;;;;;;4981783;28;20030;-71
2021/12/25 00:19:43;;;;;;;1.25;0.10;;;-1.70;99.90;;;;;;4981724;28;19910;-71
2021/12/25 00:22:09;;;;;;;;;;;-1.70;99.30;;;;;;4985522;28;20594;-71
2021/12/25 00:24:34;;;;;;;1.42;0.22;;;-1.80;99.00;;;;;;4985133;28;19968;-70
2021/12/25 00:27:10;;;;;;;;;;;-1.80;99.60;;;;;;4985322;28;20058;-70
2021/12/25 00:34:37;;;;;;;2.47;0.20;;;-1.90;99.90;;;;;;4984204;28;19989;-71
2021/12/25 00:37:04;;;;;;;0.65;0.10;;;-2.00;99.90;;;;;;4984325;28;20030;-71
2021/12/25 00:39:31;;;;;;;0.77;0.50;;;-2.00;99.90;;;;;;4984192;28;20034;-71
2021/12/25 00:41:57;;;;;;;1.58;0.25;;;-2.00;99.90;;;;;;4983920;28;20479;-71
2021/12/25 00:44:24;;;;;;;0.20;0.03;;;-2.10;99.90;;;;;;4983377;28;20391;-71
2021/12/25 00:46:50;;;;;;;2.17;0.20;;;-2.10;99.90;;;;;;4984098;28;20040;-71
2021/12/25 00:49:15;;;;;;;;;;;-2.10;99.90;;;;;;4984511;28;20019;-71
2021/12/25 00:51:41;;;;;;;0.60;0.30;;;-2.10;99.90;;;;;;4983836;28;19906;-71
2021/12/25 00:54:06;;;;;;;;;;;-2.10;99.90;;;;;;4984633;28;20403;-71
2021/12/25 00:56:32;;;;;;;0.40;0.20;;;-2.10;99.90;;;;;;4983934;28;20019;-70
2021/12/25 00:58:57;;;;;;;0.65;0.22;;;-2.10;99.90;;;;;;4984099;28;20030;-70
2021/12/25 01:01:23;;;;;;;0.35;0.35;;;-2.10;99.90;;;;;;4984035;28;20058;-70
2021/12/25 01:03:49;;;;;;;0.77;0.45;;;-2.10;99.90;;;;;;4984166;28;20030;-70
2021/12/25 01:06:15;;;;;;;1.08;0.10;;;-2.10;99.90;;;;;;4984080;28;20125;-71
2021/12/25 01:08:40;;;;;;;;;;;-2.10;99.10;;;;;;4984475;28;20565;-71
2021/12/25 01:11:06;;;;;;;1.88;0.40;;;-2.10;99.20;;;;;;4984226;28;19906;-70
2021/12/25 01:13:38;;;;;;;1.35;0.20;;;-2.20;99.80;;;;;;4984193;28;20506;-71
2021/12/25 01:19:04;;;;;;;0.25;0.10;;;-2.20;99.60;;;;;;4984248;28;20042;-71
2021/12/25 01:27:58;;;;;;;0.38;0.10;;;-2.30;99.30;;;;;;4983806;28;20394;-71
2021/12/25 01:32:44;;;;;;;;;;;-2.30;99.00;;;;;;4983120;28;20081;-71
2021/12/25 01:35:30;;;;;;;0.35;0.10;;;-2.40;98.80;;;;;;4983678;28;19913;-71
2021/12/25 01:40:50;;;;;;;0.38;0.20;;;-2.40;99.60;;;;;;4983363;28;20033;-71
2021/12/25 01:48:45;;;;;;;0.47;0.10;;;-2.50;99.40;;;;;;4983540;28;20097;-71
2021/12/25 01:51:11;;;;;;;0.63;0.20;;;-2.50;98.60;;;;;;4983102;28;20230;-70
2021/12/25 01:53:36;;;;;;;;;;;-2.50;99.00;;;;;;4983367;28;20038;-70
2021/12/25 01:56:04;;;;;;;4.40;0.20;;;-2.60;98.50;;;;;;4982865;28;20322;-70
2021/12/25 01:58:29;;;;;;;0.10;0.10;;;-2.60;98.50;;;;;;4982841;28;20427;-70
2021/12/25 02:00:58;;;;;;;1.45;0.15;;;-2.70;98.50;;;;;;4983011;28;20027;-70
2021/12/25 02:03:26;;;;;;;1.38;0.10;;;-2.70;98.60;;;;;;4982947;28;20043;-70
2021/12/25 02:05:53;;;;;;;0.30;0.10;;;-2.70;98.80;;;;;;4982941;28;20483;-70
2021/12/25 02:08:19;;;;;;;0.05;0.00;;;-2.80;99.20;;;;;;4983014;28;20027;-70
2021/12/25 02:10:44;;;;;;;;;;;-2.80;99.00;;;;;;4983512;28;20034;-70
2021/12/25 02:13:12;;;;;;;0.38;0.08;;;-2.90;99.10;;;;;;4982924;28;19910;-70
2021/12/25 02:15:40;;;;;;;0.90;0.10;;;-2.90;99.30;;;;;;4983027;28;20490;-70
2021/12/25 02:18:12;;;;;;;0.10;0.05;;;-3.00;99.60;;;;;;4982996;28;20589;-70
2021/12/25 02:21:03;;;;;;;0.38;0.15;;;-3.00;99.90;;;;;;4983268;28;20068;-70
2021/12/25 02:23:31;;;;;;;0.95;0.28;;;-3.00;99.90;;;;;;4982332;28;20023;-70
2021/12/25 02:25:57;;;;;;;0.45;0.10;;;-3.00;99.80;;;;;;4982042;28;20030;-70
2021/12/25 02:28:25;;;;;;;1.95;0.40;;;-3.10;99.90;;;;;;4981864;28;20046;-71
2021/12/25 02:30:54;;;;;;;2.53;0.43;;;-3.10;99.90;;;;;;4982071;28;20026;-70
2021/12/25 02:33:20;;;;;;;1.00;0.13;;;-3.10;99.90;;;;;;4982033;28;20062;-70
2021/12/25 02:35:45;;;;;;;0.77;0.30;;;-3.20;99.90;;;;;;4982009;28;20060;-70
2021/12/25 02:38:12;;;;;;;1.20;0.40;;;-3.20;99.90;;;;;;4982148;28;20455;-70
2021/12/25 02:40:37;;;;;;;;;;;-3.20;99.90;;;;;;4982535;28;20022;-70
2021/12/25 02:43:03;;;;;;;1.45;0.20;;;-3.30;99.90;;;;;;4981322;28;19929;-70
2021/12/25 02:45:28;;;;;;;0.30;0.20;;;-3.30;99.90;;;;;;4981545;28;20031;-70
2021/12/25 02:47:55;;;;;;;;;;;-3.30;99.90;;;;;;4982479;28;20030;-70
2021/12/25 02:50:32;;;;;;;2.03;0.50;;;-3.30;99.90;;;;;;4982014;28;19909;-70
2021/12/25 02:53:00;;;;;;;1.50;0.43;;;-3.30;99.90;;;;;;4982120;28;20033;-70
2021/12/25 02:55:26;;;;;;;4.25;0.70;;;-3.40;99.90;;;;;;4982039;28;20037;-70
2021/12/25 02:57:52;;;;;;;0.82;0.20;;;-3.40;99.90;;;;;;4982152;28;20502;-70
2021/12/25 03:00:24;;;;;;;3.38;0.30;;;-3.40;99.90;;;;;;4982041;28;20054;-70
2021/12/25 03:02:49;;;;;;;2.78;0.90;;;-3.50;99.90;;;;;;4981843;28;20026;-70
2021/12/25 03:05:15;;;;;;;0.63;0.25;;;-3.50;99.90;;;;;;4981957;28;20038;-70
2021/12/25 03:07:41;;;;;;;1.55;0.63;;;-3.50;99.90;;;;;;4982359;28;20352;-70
2021/12/25 03:10:08;;;;;;;3.08;0.63;;;-3.60;99.90;;;;;;4981957;28;20022;-70
2021/12/25 03:12:49;;;;;;;0.52;0.30;;;-3.60;99.90;;;;;;4988413;28;20029;-70
2021/12/25 03:15:26;;;;;;;0.43;0.30;;;-3.60;99.90;;;;;;4982053;28;20026;-70
2021/12/25 03:17:51;;;;;;;1.98;0.13;;;-3.60;99.90;;;;;;4982354;28;20117;-70
2021/12/25 03:20:17;;;;;;;1.23;0.57;;;-3.60;99.90;;;;;;4982203;28;20473;-70
2021/12/25 03:22:42;;;;;;;1.67;0.38;;;-3.60;99.90;;;;;;4981144;28;20026;-70
2021/12/25 03:25:09;;;;;;;;;;;-3.70;99.90;;;;;;4981544;28;20030;-70
2021/12/25 03:27:38;;;;;;;0.40;0.30;;;-3.70;99.90;;;;;;4980755;28;20428;-70
2021/12/25 03:30:05;;;;;;;0.63;0.20;;;-3.70;99.90;;;;;;4981166;28;20139;-70
2021/12/25 03:32:30;;;;;;;0.85;0.10;;;-3.70;99.90;;;;;;4981117;28;20027;-70
2021/12/25 03:34:56;;;;;;;0.30;0.20;;;-3.80;99.90;;;;;;4981329;28;20438;-70
2021/12/25 03:37:21;;;;;;;2.33;0.50;;;-3.80;99.90;;;;;;4980983;28;20541;-70
2021/12/25 03:39:47;;;;;;;3.45;0.60;;;-3.80;99.90;;;;;;4981316;28;20036;-70
2021/12/25 03:42:12;;;;;;;;;;;-3.80;99.90;;;;;;4981705;28;20498;-69
2021/12/25 03:44:38;;;;;;;0.52;0.38;;;-3.80;99.90;;;;;;4981322;28;19917;-70
2021/12/25 03:47:12;;;;;;;;;;;-3.90;99.90;;;;;;4981838;28;20120;-70
2021/12/25 03:57:55;;;;;;;1.52;0.40;;;-4.00;99.90;;;;;;4985739;28;20569;-70
2021/12/25 04:00:28;;;;;;;0.17;0.10;;;-4.00;99.90;;;;;;4985441;28;20034;-70
2021/12/25 04:02:58;;;;;;;1.33;1.23;;;-4.10;99.90;;;;;;4985544;28;20380;-70
2021/12/25 04:05:28;;;;;;;0.75;0.30;;;-4.10;99.90;;;;;;4985216;28;20050;-70
2021/12/25 04:10:33;;;;;;;0.75;0.45;;;-4.20;99.90;;;;;;4986033;28;20069;-70
2021/12/25 04:12:59;;;;;;;2.38;0.50;;;-4.20;99.90;;;;;;4985287;28;20018;-70
2021/12/25 04:15:24;;;;;;;3.30;1.10;;;-4.20;99.90;;;;;;4985371;28;20439;-70
2021/12/25 04:17:50;;;;;;;;;;;-4.20;99.90;;;;;;4985889;28;20062;-70
2021/12/25 04:20:17;;;;;;;1.27;0.43;;;-4.20;99.90;;;;;;4985275;28;19917;-70
2021/12/25 04:22:51;;;;;;;3.67;1.42;;;-4.30;99.90;;;;;;4984703;28;20081;-70
2021/12/25 04:25:23;;;;;;;0.88;0.40;;;-4.30;99.90;;;;;;4984323;28;20031;-69
2021/12/25 04:27:48;;;;;;;1.92;0.98;;;-4.30;99.90;;;;;;4984489;28;20030;-70
2021/12/25 04:30:26;;;;;;;2.47;0.32;;;-4.30;99.90;;;;;;4984328;28;20072;-70
2021/12/25 04:42:49;;;;;;;1.17;0.45;;;-4.40;99.90;;;;;;4984295;28;20045;-70
2021/12/25 05:05:43;;;;;;;2.92;1.27;;;-4.50;99.90;;;;;;4973324;28;20090;-68
2021/12/25 05:08:09;;;;;;;1.95;1.23;;;-4.50;99.90;;;;;;4963273;28;20043;-68
2021/12/25 05:10:34;;;;;;;;;;;-4.50;99.90;;;;;;4964586;28;20045;-68
2021/12/25 05:13:00;;;;;;;2.80;0.77;;;-4.60;99.90;;;;;;4964092;28;19910;-68
2021/12/25 05:15:25;;;;;;;;;;;-4.60;99.90;;;;;;4964578;28;20110;-68
2021/12/25 05:17:51;;;;;;;6.78;1.88;;;-4.60;99.90;;;;;;4962697;28;19965;-68
2021/12/25 05:20:18;;;;;;;;;;;-4.60;99.90;;;;;;4964699;28;20065;-68
2021/12/25 05:22:44;;;;;;;6.88;2.55;;;-4.60;99.90;;;;;;4964227;28;19917;-68
2021/12/25 05:25:11;;;;;;;;;;;-4.60;99.90;;;;;;4964595;28;20039;-67
2021/12/25 05:27:37;;;;;;;1.70;0.73;;;-4.60;99.90;;;;;;4963834;28;20318;-68
2021/12/25 05:30:03;;;;;;;;;;;-4.50;99.90;;;;;;4964192;28;20023;-68
2021/12/25 05:32:28;;;;;;;3.83;1.33;;;-4.60;99.90;;;;;;4963573;28;19914;-68
2021/12/25 05:34:54;;;;;;;1.80;0.93;;;-4.60;99.90;;;;;;4963359;28;20054;-68
2021/12/25 05:37:19;;;;;;;;;;;-4.60;99.90;;;;;;4964110;28;20027;-68
2021/12/25 05:39:50;;;;;;;6.05;1.88;;;-4.60;99.90;;;;;;4963192;28;19941;-68
2021/12/25 05:42:20;;;;;;;3.17;1.27;;;-4.60;99.90;;;;;;4963764;28;20117;-68
2021/12/25 05:44:46;;;;;;;3.70;1.63;;;-4.60;99.90;;;;;;4961980;28;20117;-68
2021/12/25 05:47:11;;;;;;;;;;;-4.60;99.90;;;;;;4963910;28;20480;-68
2021/12/25 05:49:37;;;;;;;5.50;2.03;;;-4.60;99.90;;;;;;4963576;28;20379;-68
2021/12/25 05:52:03;;;;;;;2.95;1.83;;;-4.70;99.90;;;;;;4963262;28;20023;-68
2021/12/25 05:54:28;;;;;;;;;;;-4.70;99.90;;;;;;4964124;28;20256;-68
2021/12/25 05:56:54;;;;;;;3.00;1.23;;;-4.80;99.90;;;;;;4963266;28;19929;-68
2021/12/25 05:59:19;;;;;;;4.93;1.80;;;-4.80;99.90;;;;;;4962066;28;20023;-68
2021/12/25 06:01:45;;;;;;;;;;;-4.80;99.90;;;;;;4963628;28;20031;-68
2021/12/25 06:04:10;;;;;;;8.00;3.00;;;-4.70;99.90;;;;;;4963315;28;19906;-68
2021/12/25 06:06:36;;;;;;;;;;;-4.70;99.90;;;;;;4963372;28;20027;-67
2021/12/25 06:09:04;;;;;;;4.10;1.52;;;-4.80;99.90;;;;;;4962442;28;19911;-68
2021/12/25 06:11:31;;;;;;;1.60;0.70;;;-4.80;99.90;;;;;;4962739;28;20042;-68
2021/12/25 06:14:07;;;;;;;2.10;0.52;;;-4.80;99.90;;;;;;4962542;28;20034;-68
2021/12/25 06:16:33;;;;;;;4.95;0.88;;;-4.80;99.90;;;;;;4963033;28;20066;-68
2021/12/25 06:18:58;;;;;;;1.92;0.73;;;-4.80;99.90;;;;;;4961539;28;20070;-67
2021/12/25 06:21:24;;;;;;;;;;;-4.80;99.90;;;;;;4963522;28;20039;-67
2021/12/25 06:23:49;;;;;;;5.68;1.25;;;-4.80;99.90;;;;;;4962725;28;19910;-68
2021/12/25 06:26:15;;;;;;;;;;;-4.90;99.90;;;;;;4963254;28;20023;-68
2021/12/25 06:28:40;;;;;;;2.13;1.23;;;-4.90;99.90;;;;;;4962459;28;19918;-67
2021/12/25 06:31:06;;;;;;;;;;;-4.90;99.90;;;;;;4963289;28;20038;-67
2021/12/25 06:33:31;;;;;;;4.15;2.00;;;-4.90;99.90;;;;;;4962588;28;19929;-67
2021/12/25 06:35:57;;;;;;;3.00;0.90;;;-4.90;99.90;;;;;;4962581;28;20027;-67
2021/12/25 06:38:22;;;;;;;;;;;-4.90;99.90;;;;;;4962967;28;20035;-67
2021/12/25 06:40:48;;;;;;;3.65;1.10;;;-4.90;99.90;;;;;;4962398;28;20335;-67
2021/12/25 06:43:13;;;;;;;2.20;1.10;;;-4.90;99.90;;;;;;4962568;28;20030;-67
2021/12/25 06:45:38;;;;;;;;;;;-4.90;99.90;;;;;;4962693;28;20043;-67
2021/12/25 06:48:04;;;;;;;10.40;3.20;;;-4.90;99.90;;;;;;4962210;28;20333;-67
2021/12/25 06:50:29;;;;;;;;;;;-4.90;99.90;;;;;;4962652;28;20079;-67
2021/12/25 06:52:55;;;;;;;4.50;1.30;;;-4.90;99.90;;;;;;4962188;28;19913;-67
2021/12/25 06:55:21;;;;;;;;;;;-4.80;99.90;;;;;;4962900;28;20074;-67
2021/12/25 06:57:53;;;;;;;6.25;2.63;;;-4.80;99.90;;;;;;4961821;28;20286;-67
2021/12/25 07:00:19;;;;;;;8.63;2.92;;;-4.80;99.90;;;;;;4962303;28;20046;-67
2021/12/25 07:02:45;;;;;;;4.30;1.95;;;-4.80;99.90;;;;;;4962093;28;20069;-67
2021/12/25 07:05:10;;;;;;;6.35;2.83;;;-4.90;99.90;;;;;;4968881;28;20027;-67
2021/12/25 07:07:36;;;;;;;;;;;-4.90;99.90;;;;;;4962236;28;20427;-67
2021/12/25 07:10:02;;;;;;;3.97;1.17;;;-4.90;99.90;;;;;;4961243;28;19922;-67
2021/12/25 07:12:28;;;;;;;;;;;-4.90;99.90;;;;;;4962345;28;20031;-67
2021/12/25 07:14:53;;;;;;;20.67;9.15;;;-4.90;99.90;;;;;;4961836;28;19917;-67
2021/12/25 07:17:19;;;;;;;20.52;8.48;;;-4.90;99.90;;;;;;4961985;28;20039;-67
2021/12/25 07:19:44;;;;;;;6.35;2.65;;;-4.90;99.90;;;;;;4962040;28;20075;-67
2021/12/25 07:22:10;;;;;;;;;;;-4.90;99.90;;;;;;4961033;28;20396;-67
2021/12/25 07:24:35;;;;;;;8.52;3.60;;;-4.90;99.90;;;;;;4961868;28;20028;-67
2021/12/25 07:27:05;;;;;;;12.38;5.35;;;-4.90;99.90;;;;;;4961870;28;20035;-67
2021/12/25 07:29:31;;;;;;;17.02;7.53;;;-4.90;99.90;;;;;;4960974;28;20118;-67
2021/12/25 07:31:57;;;;;;;11.07;4.25;;;-4.80;99.90;;;;;;4961001;28;20030;-67
2021/12/25 07:34:22;;;;;;;18.15;5.97;;;-4.80;99.90;;;;;;4968379;28;20023;-67
2021/12/25 07:36:47;;;;;;;;;;;-4.80;99.90;;;;;;4961554;28;20027;-67
2021/12/25 07:39:13;;;;;;;6.25;3.38;;;-4.80;99.90;;;;;;4961715;28;19941;-67
2021/12/25 07:41:38;;;;;;;;;;;-4.90;99.90;;;;;;4962045;28;20062;-67
2021/12/25 07:44:04;;;;;;;4.65;1.75;;;-4.90;99.90;;;;;;4961533;28;19932;-66
2021/12/25 07:46:29;;;;;;;;;;;-4.90;99.90;;;;;;4961902;28;20394;-66
2021/12/25 07:48:55;;;;;;;3.45;1.30;;;-4.90;99.90;;;;;;4961314;28;20370;-67
2021/12/25 07:51:21;;;;;;;10.10;2.97;;;-4.80;99.90;;;;;;4961496;28;20019;-67
2021/12/25 07:53:46;;;;;;;;;;;-4.80;99.90;;;;;;4961789;28;20035;-67
2021/12/25 07:56:13;;;;;;;10.60;2.47;;;-4.80;99.90;;;;;;4961339;28;20001;-67
2021/12/25 07:58:40;;;;;;;4.13;2.10;;;-4.70;99.90;;;;;;4961421;28;20035;-67
2021/12/25 08:01:05;;;;;;;2.15;0.40;;;-4.70;99.90;;;;;;4961156;28;20039;-67
2021/12/25 08:03:31;;;;;;;2.65;1.38;;;-4.70;99.90;;;;;;4960761;28;20037;-67
2021/12/25 08:05:56;;;;;;;;;;;-4.70;99.90;;;;;;4961732;28;20038;-67
2021/12/25 08:08:22;;;;;;;6.00;1.20;;;-4.60;99.90;;;;;;4961326;28;19917;-67
2021/12/25 08:10:47;;;;;;;;;;;-4.60;99.90;;;;;;4961711;28;20063;-67
2021/12/25 08:13:15;;;;;;;4.97;1.48;;;-4.50;99.90;;;;;;4961240;28;19949;-67
2021/12/25 08:15:41;;;;;;;1.70;1.05;;;-4.50;99.90;;;;;;4961137;28;20042;-67
2021/12/25 08:18:07;;;;;;;4.43;1.33;;;-4.40;99.90;;;;;;4961418;28;20038;-67
2021/12/25 08:20:34;;;;;;;8.02;1.77;;;-4.40;99.90;;;;;;4960897;28;20035;-67
2021/12/25 08:23:00;;;;;;;6.32;2.95;;;-4.30;99.90;;;;;;4960924;28;20122;-67
2021/12/25 08:25:25;;;;;;;3.45;1.85;;;-4.30;99.90;;;;;;4961302;28;20110;-67
2021/12/25 08:27:51;;;;;;;;;;;-4.20;99.90;;;;;;4961408;28;20420;-67
2021/12/25 08:30:19;;;;;;;2.38;0.77;;;-4.20;99.90;;;;;;4961346;28;19906;-67
2021/12/25 08:32:45;;;;;;;5.13;1.77;;;-4.10;99.90;;;;;;4960609;28;20125;-67
2021/12/25 08:35:13;;;;;;;2.20;1.13;;;-4.10;99.90;;;;;;4961307;28;20023;-68
2021/12/25 08:37:40;;;;;;;4.60;2.05;;;-4.00;99.90;;;;;;4960695;28;20041;-67
2021/12/25 08:40:07;;;;;;;2.97;1.23;;;-3.90;99.90;;;;;;4961023;28;20138;-67
2021/12/25 08:42:32;;;;;;;3.63;0.80;;;-3.80;99.90;;;;;;4962917;28;20022;-68
2021/12/25 08:47:24;;;;;;;;;;;-3.80;99.90;;;;;;4964905;28;20050;-68
2021/12/25 08:49:50;;;;;;;2.70;1.30;;;-3.70;99.90;;;;;;4964523;28;20008;-68
2021/12/25 08:52:18;;;;;;;3.08;0.65;;;-3.70;99.90;;;;;;4971440;28;20498;-68
2021/12/25 08:54:45;;;;;;;1.98;1.10;;;-3.70;99.90;;;;;;4963946;28;20550;-68
2021/12/25 08:57:12;;;;;;;2.20;1.25;;;-3.70;99.90;;;;;;4963899;28;20041;-67
2021/12/25 08:59:39;;;;;;;0.98;0.82;;;-3.70;99.90;;;;;;4963916;28;20153;-68
2021/12/25 09:02:09;;;;;;;3.70;0.40;;;-3.70;99.90;;;;;;4964162;28;20031;-67
2021/12/25 09:04:36;;;;;;;5.00;0.75;;;-3.70;99.90;;;;;;4964398;28;20019;-68
2021/12/25 09:07:03;;;;;;;2.22;0.82;;;-3.70;99.90;;;;;;4963531;28;20028;-67
2021/12/25 09:09:28;;;;;;;1.33;0.68;;;-3.80;99.90;;;;;;4963710;28;20027;-67
2021/12/25 09:11:54;;;;;;;3.85;0.80;;;-3.80;99.90;;;;;;4963969;28;20045;-68
2021/12/25 09:14:20;;;;;;;;;;;-3.80;99.90;;;;;;4964223;28;20031;-67
2021/12/25 09:16:45;;;;;;;4.32;1.65;;;-3.80;99.90;;;;;;4964013;28;20278;-67
2021/12/25 09:19:11;;;;;;;;;;;-3.80;99.90;;;;;;4964213;28;20178;-68
2021/12/25 09:21:36;;;;;;;3.97;1.00;;;-3.70;99.90;;;;;;4964044;28;20001;-67
2021/12/25 09:24:02;;;;;;;6.13;1.70;;;-3.70;99.90;;;;;;4963788;28;20031;-68
2021/12/25 09:26:28;;;;;;;4.82;1.55;;;-3.70;99.90;;;;;;4963982;28;20050;-67
2021/12/25 09:28:53;;;;;;;;;;;-3.70;99.90;;;;;;4963763;28;20124;-67
2021/12/25 09:31:20;;;;;;;3.00;1.42;;;-3.70;99.90;;;;;;4963828;28;20445;-67
2021/12/25 09:33:45;;;;;;;1.77;0.80;;;-3.70;99.90;;;;;;4963211;28;20054;-67
2021/12/25 09:36:11;;;;;;;3.30;1.50;;;-3.60;99.90;;;;;;4963794;28;20499;-67
2021/12/25 09:38:37;;;;;;;5.93;1.58;;;-3.60;99.90;;;;;;4963739;28;20419;-68
2021/12/25 09:41:03;;;;;;;;;;;-3.70;99.90;;;;;;4963978;28;20031;-67
2021/12/25 09:43:29;;;;;;;3.38;0.70;;;-3.70;99.90;;;;;;4963554;28;19918;-67
2021/12/25 09:45:55;;;;;;;7.15;2.50;;;-3.70;99.90;;;;;;4963615;28;20447;-67
2021/12/25 09:48:22;;;;;;;1.52;0.80;;;-3.70;99.90;;;;;;4963620;28;20069;-67
2021/12/25 09:50:48;;;;;;;5.35;0.75;;;-3.70;99.90;;;;;;4963341;28;20090;-67
2021/12/25 09:53:16;;;;;;;1.38;0.40;;;-3.70;99.90;;;;;;4962602;28;20023;-67
2021/12/25 09:55:43;;;;;;;0.65;0.30;;;-3.80;99.90;;;;;;4963174;28;20067;-67
2021/12/25 09:58:09;;;;;;;3.22;0.73;;;-3.90;99.90;;;;;;4963316;28;20034;-68
2021/12/25 10:00:39;;;;;;;2.30;0.77;;;-3.90;99.90;;;;;;4962900;28;20657;-67
2021/12/25 10:03:06;;;;;;;4.78;0.70;;;-3.90;99.90;;;;;;4962939;28;20038;-67
2021/12/25 10:05:34;;;;;;;;;;;-4.00;99.90;;;;;;4963721;28;20070;-67
2021/12/25 10:08:08;;;;;;;3.10;1.63;;;-4.00;99.90;;;;;;4962635;28;19957;-67
2021/12/25 10:10:46;;;;;;;2.33;0.70;;;-4.00;99.90;;;;;;4963012;28;20059;-67
2021/12/25 10:13:23;;;;;;;4.10;1.80;;;-3.90;99.90;;;;;;4962821;28;20070;-67
2021/12/25 10:15:51;;;;;;;3.08;1.30;;;-3.80;99.90;;;;;;4962789;28;20020;-68
2021/12/25 10:18:25;;;;;;;8.60;2.88;;;-3.80;99.90;;;;;;4962932;28;20023;-68
2021/12/25 10:20:51;;;;;;;15.38;6.15;;;-3.70;99.90;;;;;;4962455;28;20027;-67
2021/12/25 10:23:22;;;;;;;4.50;1.15;;;-3.60;99.90;;;;;;4962899;28;20031;-67
2021/12/25 10:25:51;;;;;;;5.05;2.10;;;-3.60;99.90;;;;;;4962735;28;20027;-67
2021/12/25 10:28:21;;;;;;;5.68;2.65;;;-3.50;99.90;;;;;;4962615;28;20031;-67
2021/12/25 10:30:54;;;;;;;6.70;2.47;;;-3.50;99.90;;;;;;4962477;28;20030;-67
2021/12/25 10:33:41;;;;;;;6.00;2.15;;;-3.40;99.90;;;;;;4962563;28;20078;-67
2021/12/25 10:36:27;;;;;;;2.22;0.88;;;-3.30;99.90;;;;;;4962450;28;20041;-67
2021/12/25 10:39:08;;;;;;;1.73;0.75;;;-3.20;99.90;;;;;;4962396;28;20034;-67
2021/12/25 10:41:37;;;;;;;9.50;2.85;;;-3.20;99.50;;;;;;4961995;28;20027;-67
2021/12/25 10:44:20;;;;;;;27.30;11.45;;;-3.20;99.90;;;;;;4962522;28;20563;-67
2021/12/25 10:46:57;;;;;;;22.60;12.23;;;-3.20;99.30;;;;;;4962507;28;20058;-67
2021/12/25 10:49:44;;;;;;;4.45;2.00;;;-3.10;99.70;;;;;;4962298;28;20031;-67
2021/12/25 10:52:21;;;;;;;1.23;0.32;;;-3.10;99.60;;;;;;4962248;28;20058;-67
2021/12/25 10:54:48;;;;;;;;;;;-3.00;98.90;;;;;;4962331;28;20030;-67
2021/12/25 10:57:53;;;;;;;8.90;2.50;;;-3.00;99.70;;;;;;4987793;23;19926;-71
2021/12/25 11:00:22;;;;;;;2.88;0.45;;;-2.90;99.00;;;;;;4989806;28;20054;-71
2021/12/25 11:02:49;;;;;;;4.65;1.05;;;-2.80;98.90;;;;;;4990111;28;20475;-71
2021/12/25 11:05:20;;;;;;;11.55;1.00;;;-2.80;99.00;;;;;;4989205;28;20069;-71
2021/12/25 11:07:46;;;;;;;1.38;0.50;;;-2.70;99.50;;;;;;4990095;28;20060;-71
2021/12/25 11:10:15;;;;;;;3.75;1.92;;;-2.60;98.40;;;;;;4989847;28;20034;-71
2021/12/25 11:12:41;;;;;;;2.20;1.05;;;-2.60;98.70;;;;;;4989706;28;20113;-71
2021/12/25 11:15:32;;;;;;;1.65;0.80;;;-2.60;99.20;;;;;;4990160;28;20089;-71
2021/12/25 11:18:06;;;;;;;3.67;1.00;;;-2.50;98.90;;;;;;4997978;28;20034;-71
2021/12/25 11:20:37;;;;;;;2.40;1.13;;;-2.40;99.30;;;;;;4990643;28;20022;-71
2021/12/25 11:23:06;;;;;;;4.50;1.52;;;-2.40;98.70;;;;;;4990791;28;20328;-71
2021/12/25 11:25:34;;;;;;;2.60;0.47;;;-2.30;98.40;;;;;;4990305;28;20352;-71
2021/12/25 11:28:01;;;;;;;3.92;0.60;;;-2.30;98.10;;;;;;4990465;28;20049;-71
2021/12/25 11:30:30;;;;;;;1.95;0.50;;;-2.40;97.70;;;;;;4990310;28;20018;-71
2021/12/25 11:32:56;;;;;;;3.60;0.70;;;-2.40;97.80;;;;;;4990540;28;20479;-71
2021/12/25 11:35:22;;;;;;;4.80;1.52;;;-2.50;97.20;;;;;;4989437;28;20030;-71
2021/12/25 11:37:49;;;;;;;;;;;-2.50;97.40;;;;;;4990829;28;20029;-70
2021/12/25 11:40:17;;;;;;;22.38;9.98;;;-2.50;98.00;;;;;;4990498;28;20386;-71
2021/12/25 11:42:46;;;;;;;36.47;13.25;;;-2.50;98.70;;;;;;4990141;28;20026;-70
2021/12/25 11:45:18;;;;;;;54.03;15.60;;;-2.40;98.60;;;;;;4989768;28;20031;-71
2021/12/25 11:47:51;;;;;;;10.63;2.67;;;-2.30;98.30;;;;;;4989419;28;20022;-71
2021/12/25 11:50:31;;;;;;;3.42;0.90;;;-2.30;98.10;;;;;;4989908;28;20021;-71
2021/12/25 11:53:06;;;;;;;5.05;1.60;;;-2.30;97.00;;;;;;4990051;28;20037;-71
2021/12/25 11:58:37;;;;;;;4.70;2.95;;;-2.40;97.40;;;;;;4989213;28;20402;-71
2021/12/25 12:01:15;;;;;;;2.03;0.50;;;-2.50;96.60;;;;;;4989532;28;20474;-71
2021/12/25 12:03:44;;;;;;;3.67;1.27;;;-2.50;96.80;;;;;;4989562;28;20097;-71
2021/12/25 12:06:13;;;;;;;2.50;0.85;;;-2.50;96.80;;;;;;4989321;28;20034;-70
2021/12/25 12:08:53;;;;;;;2.15;0.50;;;-2.50;97.30;;;;;;4989253;28;20101;-71
2021/12/25 12:11:23;;;;;;;2.38;0.95;;;-2.50;97.20;;;;;;4990130;28;20113;-70
2021/12/25 12:14:13;;;;;;;6.40;0.60;;;-2.50;97.40;;;;;;4990398;28;20026;-71
2021/12/25 12:16:43;;;;;;;5.80;1.52;;;-2.30;97.80;;;;;;4991787;28;20030;-71
2021/12/25 12:19:34;;;;;;;4.25;1.35;;;-2.30;97.90;;;;;;4993990;28;20427;-70
2021/12/25 12:22:29;;;;;;;1.85;0.88;;;-2.30;98.30;;;;;;4993283;28;20056;-70
2021/12/25 12:28:07;;;;;;;5.15;1.00;;;-2.30;97.60;;;;;;4993128;28;20034;-71
2021/12/25 12:30:40;;;;;;;2.33;0.50;;;-2.20;98.10;;;;;;4993312;28;20056;-71
2021/12/25 12:33:17;;;;;;;4.70;0.93;;;-2.20;98.60;;;;;;4993459;28;20031;-71
2021/12/25 12:35:48;;;;;;;4.47;0.75;;;-2.20;98.40;;;;;;4993652;28;20018;-71
2021/12/25 12:38:43;;;;;;;2.83;0.63;;;-2.10;98.50;;;;;;4993507;28;20116;-71
2021/12/25 12:41:17;;;;;;;37.00;17.17;;;-2.10;98.50;;;;;;4992884;28;20105;-70
2021/12/25 12:43:50;;;;;;;3.88;1.52;;;-2.10;98.00;;;;;;4993299;28;20018;-70
2021/12/25 12:46:15;;;;;;;18.25;5.80;;;-2.00;97.90;;;;;;4993112;28;20023;-71
2021/12/25 12:49:00;;;;;;;;;;;-2.10;98.30;;;;;;4993291;28;20030;-71
2021/12/25 12:51:25;;;;;;;7.47;1.55;;;-2.10;98.10;;;;;;4991821;28;19910;-71
2021/12/25 12:53:51;;;;;;;;;;;-2.10;98.40;;;;;;4993444;28;20026;-71
2021/12/25 12:56:21;;;;;;;4.13;2.28;;;-2.10;98.60;;;;;;4991663;28;20473;-71
2021/12/25 12:58:56;;;;;;;14.32;5.38;;;-2.00;99.00;;;;;;4992232;28;20420;-71
2021/12/25 13:01:29;;;;;;;11.07;4.72;;;-1.90;98.80;;;;;;4992230;28;20022;-70
2021/12/25 13:03:57;;;;;;;22.13;10.65;;;-1.90;99.30;;;;;;4992783;28;20137;-71
2021/12/25 13:06:35;;;;;;;26.40;11.77;;;-1.90;96.90;;;;;;4998131;23;20017;-70
2021/12/25 13:09:08;;;;;;;5.70;3.17;;;-2.00;96.60;;;;;;4992782;28;20045;-71
2021/12/25 13:11:43;;;;;;;12.93;5.10;;;-2.00;97.70;;;;;;4993106;28;20105;-71
2021/12/25 13:14:13;;;;;;;17.23;7.53;;;-1.90;97.40;;;;;;4993080;28;20022;-71
2021/12/25 13:16:44;;;;;;;8.35;4.05;;;-1.90;97.20;;;;;;4993001;28;20490;-71
2021/12/25 13:19:10;;;;;;;4.80;2.50;;;-1.80;97.10;;;;;;4992958;28;20233;-71
2021/12/25 13:21:36;;;;;;;;;;;-1.70;98.10;;;;;;5006312;23;20141;-69
2021/12/25 13:24:06;;;;;;;6.43;2.67;;;-1.70;98.30;;;;;;4992642;28;19909;-69
2021/12/25 13:26:37;;;;;;;13.95;6.50;;;-1.60;98.00;;;;;;4992360;28;20026;-69
2021/12/25 13:29:10;;;;;;;14.38;6.72;;;-1.60;97.70;;;;;;4991698;28;20029;-69
2021/12/25 13:31:38;;;;;;;5.65;3.60;;;-1.70;97.30;;;;;;4992241;28;20077;-69
2021/12/25 13:34:11;;;;;;;7.68;1.95;;;-1.70;97.30;;;;;;4991755;28;20075;-69
2021/12/25 13:36:39;;;;;;;20.48;7.88;;;-1.80;97.50;;;;;;4992086;28;20562;-69
2021/12/25 13:39:17;;;;;;;27.90;13.13;;;-1.80;97.80;;;;;;4991977;28;20483;-70
2021/12/25 13:41:46;;;;;;;15.35;6.28;;;-1.80;96.70;;;;;;4992122;28;20034;-69
2021/12/25 13:44:22;;;;;;;5.70;1.67;;;-1.90;97.60;;;;;;4991923;28;20501;-70
2021/12/25 13:47:05;;;;;;;3.40;1.45;;;-1.90;98.20;;;;;;4992131;28;20042;-70
2021/12/25 13:49:40;;;;;;;6.65;2.10;;;-1.80;98.40;;;;;;4990010;28;20030;-70
2021/12/25 13:52:08;;;;;;;3.92;1.88;;;-1.80;99.10;;;;;;4991783;28;20030;-70
2021/12/25 13:54:37;;;;;;;14.85;6.35;;;-1.80;98.80;;;;;;4991004;28;20027;-69
2021/12/25 13:57:03;;;;;;;15.10;6.70;;;-1.80;98.90;;;;;;4991447;28;20026;-70
2021/12/25 13:59:28;;;;;;;;;;;-1.80;98.30;;;;;;4991762;28;20026;-69
2021/12/25 14:02:01;;;;;;;8.20;3.65;;;-1.90;98.10;;;;;;4991272;28;19916;-70
2021/12/25 14:04:27;;;;;;;20.75;11.10;;;-2.10;97.50;;;;;;4990386;28;20603;-69
2021/12/25 14:06:52;;;;;;;;;;;-2.20;98.80;;;;;;4991744;28;20128;-69
2021/12/25 14:09:18;;;;;;;58.95;26.50;;;-2.20;99.20;;;;;;4992094;28;19936;-69
2021/12/25 14:11:51;;;;;;;44.42;23.98;;;-2.20;98.20;;;;;;4991707;28;20100;-69
2021/12/25 14:14:19;;;;;;;34.03;15.60;;;-2.40;97.80;;;;;;4990627;28;20097;-69
2021/12/25 14:16:46;;;;;;;23.25;9.95;;;-2.40;97.90;;;;;;4991136;28;20023;-69
2021/12/25 14:19:13;;;;;;;93.63;41.40;;;-2.50;98.90;;;;;;4991122;28;20034;-69
2021/12/25 14:21:54;;;;;;;53.60;19.52;;;-2.50;98.00;;;;;;4991305;28;20027;-69